Terminal Aerodrome Forecast
Issued by NWS

Home | Current Version | Previous Version | Text Only | Print | Product List | Glossary On
Versions: 1 2 3 4 5 6 7 8 9 10 11 12 13 14 15
000
FTAK31 PANC 241128
TAFAGK
TAF
PAGK 241128Z 2412/2512 VRB04KT P6SM VCSH BKN080
     FM250000 01007KT P6SM VCTS SCT045CB BKN060
     FM250600 01005KT P6SM BKN050 OVC080=

USA.gov is the U.S. government's official web portal to all federal, state and local government web resources and services.